sensor_id;sensor_type;location;lat;lon;timestamp;temperature;humidity
48208;DHT22;33997;53.278;9.708;2023-03-01T00:02:16;-3273.60;90.20
48208;DHT22;33997;53.278;9.708;2023-03-01T00:04:42;-3273.60;90.60
48208;DHT22;33997;53.278;9.708;2023-03-01T00:07:07;-3273.60;90.80
48208;DHT22;33997;53.278;9.708;2023-03-01T00:09:32;-3273.50;90.50
48208;DHT22;33997;53.278;9.708;2023-03-01T00:11:58;-3273.50;90.50
48208;DHT22;33997;53.278;9.708;2023-03-01T00:14:23;-3273.50;90.60
48208;DHT22;33997;53.278;9.708;2023-03-01T00:16:49;-3273.50;90.70
48208;DHT22;33997;53.278;9.708;2023-03-01T00:19:17;-3273.40;90.60
48208;DHT22;33997;53.278;9.708;2023-03-01T00:21:43;-3273.40;90.60
48208;DHT22;33997;53.278;9.708;2023-03-01T00:24:09;-3273.30;90.50
48208;DHT22;33997;53.278;9.708;2023-03-01T00:26:36;-3273.30;90.60
48208;DHT22;33997;53.278;9.708;2023-03-01T00:29:01;-3273.30;90.90
48208;DHT22;33997;53.278;9.708;2023-03-01T00:31:29;-3273.30;91.00
48208;DHT22;33997;53.278;9.708;2023-03-01T00:33:58;-3273.30;91.00
48208;DHT22;33997;53.278;9.708;2023-03-01T00:36:29;-3273.30;91.20
48208;DHT22;33997;53.278;9.708;2023-03-01T00:38:56;-3273.20;91.40
48208;DHT22;33997;53.278;9.708;2023-03-01T00:41:22;-3273.20;91.30
48208;DHT22;33997;53.278;9.708;2023-03-01T00:43:48;-3273.20;91.30
48208;DHT22;33997;53.278;9.708;2023-03-01T00:46:21;-3273.10;91.20
48208;DHT22;33997;53.278;9.708;2023-03-01T00:48:48;-3273.10;91.10
48208;DHT22;33997;53.278;9.708;2023-03-01T00:51:26;-3273.10;91.20
48208;DHT22;33997;53.278;9.708;2023-03-01T00:53:53;-3273.10;91.40
48208;DHT22;33997;53.278;9.708;2023-03-01T00:56:20;-3273.00;91.40
48208;DHT22;33997;53.278;9.708;2023-03-01T00:58:46;-3273.10;91.50
48208;DHT22;33997;53.278;9.708;2023-03-01T01:01:14;-3273.00;91.20
48208;DHT22;33997;53.278;9.708;2023-03-01T01:03:52;-3273.10;91.30
48208;DHT22;33997;53.278;9.708;2023-03-01T01:06:23;-3273.10;91.40
48208;DHT22;33997;53.278;9.708;2023-03-01T01:08:49;-3273.00;91.30
48208;DHT22;33997;53.278;9.708;2023-03-01T01:11:16;-3273.00;91.30
48208;DHT22;33997;53.278;9.708;2023-03-01T01:13:41;-3273.00;91.40
48208;DHT22;33997;53.278;9.708;2023-03-01T01:16:07;-3273.00;91.50
48208;DHT22;33997;53.278;9.708;2023-03-01T01:18:33;-3273.00;91.70
48208;DHT22;33997;53.278;9.708;2023-03-01T01:21:07;-3273.00;91.70
48208;DHT22;33997;53.278;9.708;2023-03-01T01:23:33;-3273.00;92.00
48208;DHT22;33997;53.278;9.708;2023-03-01T01:26:14;-3273.10;92.10
48208;DHT22;33997;53.278;9.708;2023-03-01T01:28:40;-3273.00;92.20
48208;DHT22;33997;53.278;9.708;2023-03-01T01:31:06;-3273.00;92.00
48208;DHT22;33997;53.278;9.708;2023-03-01T01:33:34;-3273.00;92.10
48208;DHT22;33997;53.278;9.708;2023-03-01T01:35:59;-3273.00;92.20
48208;DHT22;33997;53.278;9.708;2023-03-01T01:38:25;-3272.90;92.10
48208;DHT22;33997;53.278;9.708;2023-03-01T01:40:51;-3272.90;92.30
48208;DHT22;33997;53.278;9.708;2023-03-01T01:43:29;-3272.90;92.40
48208;DHT22;33997;53.278;9.708;2023-03-01T01:46:07;-3272.90;92.60
48208;DHT22;33997;53.278;9.708;2023-03-01T01:48:43;-3272.80;92.50
48208;DHT22;33997;53.278;9.708;2023-03-01T01:51:14;-3272.80;92.60
48208;DHT22;33997;53.278;9.708;2023-03-01T01:53:46;-3272.80;92.60
48208;DHT22;33997;53.278;9.708;2023-03-01T01:56:15;-3272.80;92.60
48208;DHT22;33997;53.278;9.708;2023-03-01T01:58:42;-3272.80;92.40
48208;DHT22;33997;53.278;9.708;2023-03-01T02:01:08;-3272.80;92.30
48208;DHT22;33997;53.278;9.708;2023-03-01T02:03:37;-3272.80;92.30
48208;DHT22;33997;53.278;9.708;2023-03-01T02:09:00;-3272.70;92.20
48208;DHT22;33997;53.278;9.708;2023-03-01T02:11:29;-3272.80;92.40
48208;DHT22;33997;53.278;9.708;2023-03-01T02:13:55;-3272.70;92.50
48208;DHT22;33997;53.278;9.708;2023-03-01T02:16:20;-3272.70;92.60
48208;DHT22;33997;53.278;9.708;2023-03-01T02:18:46;-3272.70;92.70
48208;DHT22;33997;53.278;9.708;2023-03-01T02:24:05;-3272.70;92.40
48208;DHT22;33997;53.278;9.708;2023-03-01T02:26:47;-3272.70;92.50
48208;DHT22;33997;53.278;9.708;2023-03-01T02:29:13;-3272.60;92.60
48208;DHT22;33997;53.278;9.708;2023-03-01T02:31:39;-3272.60;92.60
48208;DHT22;33997;53.278;9.708;2023-03-01T02:34:19;-3272.60;92.70
48208;DHT22;33997;53.278;9.708;2023-03-01T02:37:01;-3272.70;92.90
48208;DHT22;33997;53.278;9.708;2023-03-01T02:39:38;-3272.60;92.90
48208;DHT22;33997;53.278;9.708;2023-03-01T02:42:08;-3272.70;93.00
48208;DHT22;33997;53.278;9.708;2023-03-01T02:44:35;-3272.60;93.00
48208;DHT22;33997;53.278;9.708;2023-03-01T02:47:02;-3272.70;92.90
48208;DHT22;33997;53.278;9.708;2023-03-01T02:49:31;-3272.70;93.00
48208;DHT22;33997;53.278;9.708;2023-03-01T02:52:24;-3272.60;93.00
48208;DHT22;33997;53.278;9.708;2023-03-01T02:55:02;-3272.60;92.90
48208;DHT22;33997;53.278;9.708;2023-03-01T02:57:30;-3272.60;92.90
48208;DHT22;33997;53.278;9.708;2023-03-01T02:59:58;-3272.50;92.90
48208;DHT22;33997;53.278;9.708;2023-03-01T03:02:27;-3272.50;93.00
48208;DHT22;33997;53.278;9.708;2023-03-01T03:05:09;-3272.50;93.00
48208;DHT22;33997;53.278;9.708;2023-03-01T03:07:37;-3272.50;92.90
48208;DHT22;33997;53.278;9.708;2023-03-01T03:10:04;-3272.50;93.10
48208;DHT22;33997;53.278;9.708;2023-03-01T03:12:31;-3272.40;93.10
48208;DHT22;33997;53.278;9.708;2023-03-01T03:14:56;-3272.40;93.20
48208;DHT22;33997;53.278;9.708;2023-03-01T03:17:22;-3272.60;93.40
48208;DHT22;33997;53.278;9.708;2023-03-01T03:19:48;-3272.70;93.40
48208;DHT22;33997;53.278;9.708;2023-03-01T03:22:14;-3272.60;93.20
48208;DHT22;33997;53.278;9.708;2023-03-01T03:24:39;-3272.60;93.20
48208;DHT22;33997;53.278;9.708;2023-03-01T03:27:05;-3272.60;93.10
48208;DHT22;33997;53.278;9.708;2023-03-01T03:29:32;-3272.50;93.10
48208;DHT22;33997;53.278;9.708;2023-03-01T03:31:57;-3272.50;93.20
48208;DHT22;33997;53.278;9.708;2023-03-01T03:34:23;-3272.50;93.30
48208;DHT22;33997;53.278;9.708;2023-03-01T03:36:53;-3272.40;93.40
48208;DHT22;33997;53.278;9.708;2023-03-01T03:39:22;-3272.40;93.40
48208;DHT22;33997;53.278;9.708;2023-03-01T03:41:48;-3272.50;93.60
48208;DHT22;33997;53.278;9.708;2023-03-01T03:44:13;-3272.50;93.80
48208;DHT22;33997;53.278;9.708;2023-03-01T03:46:39;-3272.70;94.00
48208;DHT22;33997;53.278;9.708;2023-03-01T03:49:04;-3272.80;93.80
48208;DHT22;33997;53.278;9.708;2023-03-01T03:51:30;-3272.90;93.90
48208;DHT22;33997;53.278;9.708;2023-03-01T03:53:55;-3273.10;94.00
48208;DHT22;33997;53.278;9.708;2023-03-01T03:56:21;-3273.10;93.90
48208;DHT22;33997;53.278;9.708;2023-03-01T03:58:51;-3273.30;93.70
48208;DHT22;33997;53.278;9.708;2023-03-01T04:01:17;-3273.20;93.30
48208;DHT22;33997;53.278;9.708;2023-03-01T04:03:43;-3273.30;93.30
48208;DHT22;33997;53.278;9.708;2023-03-01T04:06:12;-3273.30;93.10
48208;DHT22;33997;53.278;9.708;2023-03-01T04:08:38;-3273.30;93.10
48208;DHT22;33997;53.278;9.708;2023-03-01T04:11:05;-3273.30;93.20
48208;DHT22;33997;53.278;9.708;2023-03-01T04:13:49;-3273.40;93.20
48208;DHT22;33997;53.278;9.708;2023-03-01T04:16:15;-3273.40;93.10
48208;DHT22;33997;53.278;9.708;2023-03-01T04:18:41;-3273.40;93.10
48208;DHT22;33997;53.278;9.708;2023-03-01T04:21:07;-3273.50;93.10
48208;DHT22;33997;53.278;9.708;2023-03-01T04:23:32;-3273.60;93.10
48208;DHT22;33997;53.278;9.708;2023-03-01T04:25:58;-3273.70;93.10
48208;DHT22;33997;53.278;9.708;2023-03-01T04:30:50;-3273.80;92.80
48208;DHT22;33997;53.278;9.708;2023-03-01T04:33:16;-3273.90;92.80
48208;DHT22;33997;53.278;9.708;2023-03-01T04:35:42;-3274.00;92.90
48208;DHT22;33997;53.278;9.708;2023-03-01T04:38:08;-3274.00;92.50
48208;DHT22;33997;53.278;9.708;2023-03-01T04:40:34;-3273.90;92.40
48208;DHT22;33997;53.278;9.708;2023-03-01T04:43:00;-3273.90;92.40
48208;DHT22;33997;53.278;9.708;2023-03-01T04:45:26;-3273.90;92.50
48208;DHT22;33997;53.278;9.708;2023-03-01T04:47:53;-3273.90;92.50
48208;DHT22;33997;53.278;9.708;2023-03-01T04:50:19;-3273.90;92.50
48208;DHT22;33997;53.278;9.708;2023-03-01T04:52:49;-3273.90;92.50
48208;DHT22;33997;53.278;9.708;2023-03-01T04:55:14;-3273.80;92.50
48208;DHT22;33997;53.278;9.708;2023-03-01T04:57:40;-3273.70;92.50
48208;DHT22;33997;53.278;9.708;2023-03-01T05:00:07;-3273.60;92.40
48208;DHT22;33997;53.278;9.708;2023-03-01T05:02:57;-3273.50;92.40
48208;DHT22;33997;53.278;9.708;2023-03-01T05:05:34;-3273.50;92.70
48208;DHT22;33997;53.278;9.708;2023-03-01T05:08:07;-3273.40;92.80
48208;DHT22;33997;53.278;9.708;2023-03-01T05:10:35;-3273.30;92.80
48208;DHT22;33997;53.278;9.708;2023-03-01T05:13:01;-3273.30;93.00
48208;DHT22;33997;53.278;9.708;2023-03-01T05:15:29;-3273.20;93.20
48208;DHT22;33997;53.278;9.708;2023-03-01T05:17:57;-3273.30;93.30
48208;DHT22;33997;53.278;9.708;2023-03-01T05:20:27;-3273.40;93.50
48208;DHT22;33997;53.278;9.708;2023-03-01T05:22:56;-3273.50;93.70
48208;DHT22;33997;53.278;9.708;2023-03-01T05:25:22;-3273.60;93.60
48208;DHT22;33997;53.278;9.708;2023-03-01T05:27:47;-3273.60;93.60
48208;DHT22;33997;53.278;9.708;2023-03-01T05:30:14;-3273.60;93.60
48208;DHT22;33997;53.278;9.708;2023-03-01T05:35:06;-3273.90;93.80
48208;DHT22;33997;53.278;9.708;2023-03-01T05:37:32;-3273.90;93.70
48208;DHT22;33997;53.278;9.708;2023-03-01T05:39:57;-3274.00;93.70
48208;DHT22;33997;53.278;9.708;2023-03-01T05:42:23;-3274.10;93.60
48208;DHT22;33997;53.278;9.708;2023-03-01T05:44:48;-3274.20;93.50
48208;DHT22;33997;53.278;9.708;2023-03-01T05:47:14;-3274.30;93.60
48208;DHT22;33997;53.278;9.708;2023-03-01T05:49:39;-3274.40;93.60
48208;DHT22;33997;53.278;9.708;2023-03-01T05:52:05;-3274.50;93.40
48208;DHT22;33997;53.278;9.708;2023-03-01T05:54:30;-3274.50;93.20
48208;DHT22;33997;53.278;9.708;2023-03-01T05:56:56;-3274.50;93.20
48208;DHT22;33997;53.278;9.708;2023-03-01T05:59:21;-3274.60;93.00
48208;DHT22;33997;53.278;9.708;2023-03-01T06:01:47;-3274.70;92.80
48208;DHT22;33997;53.278;9.708;2023-03-01T06:04:12;-3274.70;92.50
48208;DHT22;33997;53.278;9.708;2023-03-01T06:06:38;-3274.80;92.30
48208;DHT22;33997;53.278;9.708;2023-03-01T06:09:05;-3274.90;92.10
48208;DHT22;33997;53.278;9.708;2023-03-01T06:11:34;-3274.90;91.90
48208;DHT22;33997;53.278;9.708;2023-03-01T06:13:59;-3275.00;91.90
48208;DHT22;33997;53.278;9.708;2023-03-01T06:16:25;-3275.00;91.90
48208;DHT22;33997;53.278;9.708;2023-03-01T06:18:50;-3275.00;91.90
48208;DHT22;33997;53.278;9.708;2023-03-01T06:21:16;-3275.10;91.80
48208;DHT22;33997;53.278;9.708;2023-03-01T06:23:41;-3275.10;91.80
48208;DHT22;33997;53.278;9.708;2023-03-01T06:26:08;-3275.10;91.80
48208;DHT22;33997;53.278;9.708;2023-03-01T06:28:35;-3275.20;91.60
48208;DHT22;33997;53.278;9.708;2023-03-01T06:31:01;-3275.20;91.80
48208;DHT22;33997;53.278;9.708;2023-03-01T06:33:26;-3275.30;91.90
48208;DHT22;33997;53.278;9.708;2023-03-01T06:35:54;-3275.40;91.70
48208;DHT22;33997;53.278;9.708;2023-03-01T06:38:20;-3275.40;91.60
48208;DHT22;33997;53.278;9.708;2023-03-01T06:40:51;-3275.40;91.70
48208;DHT22;33997;53.278;9.708;2023-03-01T06:43:17;-3275.50;91.90
48208;DHT22;33997;53.278;9.708;2023-03-01T06:45:42;-3275.50;91.90
48208;DHT22;33997;53.278;9.708;2023-03-01T06:48:08;-3275.50;92.10
48208;DHT22;33997;53.278;9.708;2023-03-01T06:50:34;-3275.60;92.00
48208;DHT22;33997;53.278;9.708;2023-03-01T06:53:00;-3275.50;92.30
48208;DHT22;33997;53.278;9.708;2023-03-01T06:55:26;-3275.70;92.30
48208;DHT22;33997;53.278;9.708;2023-03-01T06:57:56;-3275.80;92.10
48208;DHT22;33997;53.278;9.708;2023-03-01T07:00:22;-3275.80;92.00
48208;DHT22;33997;53.278;9.708;2023-03-01T07:02:47;-3276.00;92.20
48208;DHT22;33997;53.278;9.708;2023-03-01T07:05:13;-3276.00;91.70
48208;DHT22;33997;53.278;9.708;2023-03-01T07:07:38;-3276.00;91.70
48208;DHT22;33997;53.278;9.708;2023-03-01T07:10:04;-3276.10;91.60
48208;DHT22;33997;53.278;9.708;2023-03-01T07:12:30;-3276.10;91.30
48208;DHT22;33997;53.278;9.708;2023-03-01T07:14:56;-3276.20;91.60
48208;DHT22;33997;53.278;9.708;2023-03-01T07:17:21;-3276.20;91.90
48208;DHT22;33997;53.278;9.708;2023-03-01T07:19:47;-3276.30;91.80
48208;DHT22;33997;53.278;9.708;2023-03-01T07:22:12;-3276.30;91.70
48208;DHT22;33997;53.278;9.708;2023-03-01T07:24:37;-3276.30;92.00
48208;DHT22;33997;53.278;9.708;2023-03-01T07:27:03;-3276.40;92.00
48208;DHT22;33997;53.278;9.708;2023-03-01T07:29:29;-3276.40;92.00
48208;DHT22;33997;53.278;9.708;2023-03-01T07:31:54;-3276.40;91.90
48208;DHT22;33997;53.278;9.708;2023-03-01T07:34:20;-3276.40;91.90
48208;DHT22;33997;53.278;9.708;2023-03-01T07:36:45;-3276.50;91.40
48208;DHT22;33997;53.278;9.708;2023-03-01T07:39:11;-3276.40;91.00
48208;DHT22;33997;53.278;9.708;2023-03-01T07:41:37;-3276.60;90.20
48208;DHT22;33997;53.278;9.708;2023-03-01T07:44:02;-3276.60;89.80
48208;DHT22;33997;53.278;9.708;2023-03-01T07:46:28;-3276.70;89.60
48208;DHT22;33997;53.278;9.708;2023-03-01T07:48:53;0.00;88.60
48208;DHT22;33997;53.278;9.708;2023-03-01T07:51:19;0.00;88.70
48208;DHT22;33997;53.278;9.708;2023-03-01T07:53:48;0.10;88.30
48208;DHT22;33997;53.278;9.708;2023-03-01T07:56:15;0.10;87.70
48208;DHT22;33997;53.278;9.708;2023-03-01T07:58:43;0.20;87.10
48208;DHT22;33997;53.278;9.708;2023-03-01T08:01:12;0.30;86.10
48208;DHT22;33997;53.278;9.708;2023-03-01T08:03:38;0.40;85.50
48208;DHT22;33997;53.278;9.708;2023-03-01T08:06:06;0.60;86.00
48208;DHT22;33997;53.278;9.708;2023-03-01T08:08:32;0.70;86.20
48208;DHT22;33997;53.278;9.708;2023-03-01T08:10:59;0.70;84.10
48208;DHT22;33997;53.278;9.708;2023-03-01T08:13:25;0.70;83.90
48208;DHT22;33997;53.278;9.708;2023-03-01T08:15:51;0.80;83.00
48208;DHT22;33997;53.278;9.708;2023-03-01T08:18:18;0.80;82.40
48208;DHT22;33997;53.278;9.708;2023-03-01T08:20:44;1.00;83.00
48208;DHT22;33997;53.278;9.708;2023-03-01T08:23:10;1.10;82.70
48208;DHT22;33997;53.278;9.708;2023-03-01T08:25:36;1.20;82.60
48208;DHT22;33997;53.278;9.708;2023-03-01T08:28:02;1.40;83.30
48208;DHT22;33997;53.278;9.708;2023-03-01T08:30:27;1.50;83.50
48208;DHT22;33997;53.278;9.708;2023-03-01T08:32:53;1.70;83.70
48208;DHT22;33997;53.278;9.708;2023-03-01T08:35:19;1.80;81.90
48208;DHT22;33997;53.278;9.708;2023-03-01T08:37:45;1.80;82.50
48208;DHT22;33997;53.278;9.708;2023-03-01T08:40:11;1.90;82.60
48208;DHT22;33997;53.278;9.708;2023-03-01T08:42:39;2.10;82.00
48208;DHT22;33997;53.278;9.708;2023-03-01T08:45:05;2.20;81.80
48208;DHT22;33997;53.278;9.708;2023-03-01T08:47:31;2.20;81.40
48208;DHT22;33997;53.278;9.708;2023-03-01T08:49:59;2.40;80.40
48208;DHT22;33997;53.278;9.708;2023-03-01T08:52:24;2.40;81.00
48208;DHT22;33997;53.278;9.708;2023-03-01T08:54:50;2.50;81.20
48208;DHT22;33997;53.278;9.708;2023-03-01T08:57:15;2.60;80.70
48208;DHT22;33997;53.278;9.708;2023-03-01T08:59:41;2.70;81.00
48208;DHT22;33997;53.278;9.708;2023-03-01T09:02:12;2.70;79.10
48208;DHT22;33997;53.278;9.708;2023-03-01T09:04:38;2.80;78.90
48208;DHT22;33997;53.278;9.708;2023-03-01T09:07:03;2.70;77.10
48208;DHT22;33997;53.278;9.708;2023-03-01T09:09:29;2.70;76.00
48208;DHT22;33997;53.278;9.708;2023-03-01T09:11:54;2.80;75.00
48208;DHT22;33997;53.278;9.708;2023-03-01T09:14:20;2.80;75.80
48208;DHT22;33997;53.278;9.708;2023-03-01T09:16:46;3.00;75.50
48208;DHT22;33997;53.278;9.708;2023-03-01T09:19:11;3.10;76.00
48208;DHT22;33997;53.278;9.708;2023-03-01T09:21:37;3.20;75.00
48208;DHT22;33997;53.278;9.708;2023-03-01T09:24:02;3.30;73.50
48208;DHT22;33997;53.278;9.708;2023-03-01T09:26:28;3.40;73.00
48208;DHT22;33997;53.278;9.708;2023-03-01T09:28:55;3.50;73.80
48208;DHT22;33997;53.278;9.708;2023-03-01T09:31:22;3.60;72.30
48208;DHT22;33997;53.278;9.708;2023-03-01T09:33:50;3.70;72.50
48208;DHT22;33997;53.278;9.708;2023-03-01T09:36:21;3.60;71.80
48208;DHT22;33997;53.278;9.708;2023-03-01T09:38:48;3.90;73.60
48208;DHT22;33997;53.278;9.708;2023-03-01T09:46:47;4.00;74.10
48208;DHT22;33997;53.278;9.708;2023-03-01T09:49:23;3.90;72.40
48208;DHT22;33997;53.278;9.708;2023-03-01T09:52:19;4.30;73.90
48208;DHT22;33997;53.278;9.708;2023-03-01T09:54:49;4.50;72.80
48208;DHT22;33997;53.278;9.708;2023-03-01T09:57:35;4.60;73.00
48208;DHT22;33997;53.278;9.708;2023-03-01T10:02:46;4.90;72.20
48208;DHT22;33997;53.278;9.708;2023-03-01T10:05:41;5.10;71.60
48208;DHT22;33997;53.278;9.708;2023-03-01T10:08:26;5.10;71.60
48208;DHT22;33997;53.278;9.708;2023-03-01T10:10:53;4.90;71.00
48208;DHT22;33997;53.278;9.708;2023-03-01T10:13:45;5.10;71.80
48208;DHT22;33997;53.278;9.708;2023-03-01T10:16:45;5.20;72.40
48208;DHT22;33997;53.278;9.708;2023-03-01T10:19:20;5.40;72.30
48208;DHT22;33997;53.278;9.708;2023-03-01T10:21:50;5.50;72.40
48208;DHT22;33997;53.278;9.708;2023-03-01T10:24:19;5.70;72.80
48208;DHT22;33997;53.278;9.708;2023-03-01T10:26:57;5.70;71.40
48208;DHT22;33997;53.278;9.708;2023-03-01T10:32:11;5.90;71.50
48208;DHT22;33997;53.278;9.708;2023-03-01T10:34:36;6.20;70.30
48208;DHT22;33997;53.278;9.708;2023-03-01T10:37:14;6.30;69.60
48208;DHT22;33997;53.278;9.708;2023-03-01T10:40:02;6.10;69.90
48208;DHT22;33997;53.278;9.708;2023-03-01T10:42:38;6.40;70.50
48208;DHT22;33997;53.278;9.708;2023-03-01T10:45:33;6.50;69.80
48208;DHT22;33997;53.278;9.708;2023-03-01T10:50:42;6.50;68.40
48208;DHT22;33997;53.278;9.708;2023-03-01T10:53:22;6.70;68.60
48208;DHT22;33997;53.278;9.708;2023-03-01T10:56:17;6.80;68.80
48208;DHT22;33997;53.278;9.708;2023-03-01T10:59:03;7.00;69.40
48208;DHT22;33997;53.278;9.708;2023-03-01T11:01:32;7.30;68.40
48208;DHT22;33997;53.278;9.708;2023-03-01T11:06:37;7.80;66.50
48208;DHT22;33997;53.278;9.708;2023-03-01T11:09:20;7.80;67.30
48208;DHT22;33997;53.278;9.708;2023-03-01T11:11:51;7.80;66.00
48208;DHT22;33997;53.278;9.708;2023-03-01T11:14:20;7.90;66.30
48208;DHT22;33997;53.278;9.708;2023-03-01T11:16:57;8.20;66.90
48208;DHT22;33997;53.278;9.708;2023-03-01T11:19:23;8.60;66.00
48208;DHT22;33997;53.278;9.708;2023-03-01T11:24:37;8.70;65.60
48208;DHT22;33997;53.278;9.708;2023-03-01T11:27:06;9.00;64.40
48208;DHT22;33997;53.278;9.708;2023-03-01T11:29:39;9.00;64.10
48208;DHT22;33997;53.278;9.708;2023-03-01T11:32:09;8.50;65.40
48208;DHT22;33997;53.278;9.708;2023-03-01T11:34:50;8.50;64.90
48208;DHT22;33997;53.278;9.708;2023-03-01T11:39:58;8.30;65.40
48208;DHT22;33997;53.278;9.708;2023-03-01T11:45:12;8.90;66.20
48208;DHT22;33997;53.278;9.708;2023-03-01T11:56:10;9.80;62.60
48208;DHT22;33997;53.278;9.708;2023-03-01T11:58:58;10.10;62.40
48208;DHT22;33997;53.278;9.708;2023-03-01T12:07:54;10.40;60.60
48208;DHT22;33997;53.278;9.708;2023-03-01T12:10:51;10.60;60.10
48208;DHT22;33997;53.278;9.708;2023-03-01T12:16:28;10.30;60.70
48208;DHT22;33997;53.278;9.708;2023-03-01T12:19:21;10.40;61.50
48208;DHT22;33997;53.278;9.708;2023-03-01T12:25:00;11.30;61.20
48208;DHT22;33997;53.278;9.708;2023-03-01T12:27:47;11.60;60.00
48208;DHT22;33997;53.278;9.708;2023-03-01T12:41:43;12.20;58.50
48208;DHT22;33997;53.278;9.708;2023-03-01T12:44:35;12.40;56.20
48208;DHT22;33997;53.278;9.708;2023-03-01T12:57:57;12.00;58.10
48208;DHT22;33997;53.278;9.708;2023-03-01T13:00:32;12.40;59.80
48208;DHT22;33997;53.278;9.708;2023-03-01T13:03:12;12.70;57.80
48208;DHT22;33997;53.278;9.708;2023-03-01T13:06:00;12.80;56.90
48208;DHT22;33997;53.278;9.708;2023-03-01T13:08:33;12.50;56.90
48208;DHT22;33997;53.278;9.708;2023-03-01T13:11:04;12.00;57.90
48208;DHT22;33997;53.278;9.708;2023-03-01T13:13:31;11.10;59.80
48208;DHT22;33997;53.278;9.708;2023-03-01T13:15:57;11.40;60.60
48208;DHT22;33997;53.278;9.708;2023-03-01T13:20:51;11.40;60.50
48208;DHT22;33997;53.278;9.708;2023-03-01T13:36:13;12.30;59.60
48208;DHT22;33997;53.278;9.708;2023-03-01T13:46:44;11.50;60.00
48208;DHT22;33997;53.278;9.708;2023-03-01T13:49:17;11.30;60.20
48208;DHT22;33997;53.278;9.708;2023-03-01T13:51:47;11.50;61.20
48208;DHT22;33997;53.278;9.708;2023-03-01T13:54:14;11.90;59.30
48208;DHT22;33997;53.278;9.708;2023-03-01T13:56:40;11.80;59.70
48208;DHT22;33997;53.278;9.708;2023-03-01T13:59:17;12.10;59.50
48208;DHT22;33997;53.278;9.708;2023-03-01T14:01:42;11.80;59.80
48208;DHT22;33997;53.278;9.708;2023-03-01T14:04:23;11.80;58.40
48208;DHT22;33997;53.278;9.708;2023-03-01T14:06:49;11.60;60.00
48208;DHT22;33997;53.278;9.708;2023-03-01T14:09:18;11.90;59.80
48208;DHT22;33997;53.278;9.708;2023-03-01T14:15:01;12.70;57.70
48208;DHT22;33997;53.278;9.708;2023-03-01T14:20:27;12.60;57.60
48208;DHT22;33997;53.278;9.708;2023-03-01T14:22:55;13.00;57.00
48208;DHT22;33997;53.278;9.708;2023-03-01T14:25:29;12.90;56.50
48208;DHT22;33997;53.278;9.708;2023-03-01T14:28:17;13.30;56.70
48208;DHT22;33997;53.278;9.708;2023-03-01T14:30:46;11.90;57.80
48208;DHT22;33997;53.278;9.708;2023-03-01T14:33:33;11.90;58.90
48208;DHT22;33997;53.278;9.708;2023-03-01T14:36:02;12.30;59.00
48208;DHT22;33997;53.278;9.708;2023-03-01T14:38:31;12.20;56.80
48208;DHT22;33997;53.278;9.708;2023-03-01T14:41:00;12.20;59.70
48208;DHT22;33997;53.278;9.708;2023-03-01T14:43:28;11.10;60.60
48208;DHT22;33997;53.278;9.708;2023-03-01T14:45:54;11.10;62.00
48208;DHT22;33997;53.278;9.708;2023-03-01T14:48:20;11.50;62.50
48208;DHT22;33997;53.278;9.708;2023-03-01T14:50:46;11.50;60.60
48208;DHT22;33997;53.278;9.708;2023-03-01T14:53:19;11.20;61.30
48208;DHT22;33997;53.278;9.708;2023-03-01T14:55:48;11.10;62.20
48208;DHT22;33997;53.278;9.708;2023-03-01T14:58:15;11.30;61.40
48208;DHT22;33997;53.278;9.708;2023-03-01T15:00:52;10.90;63.30
48208;DHT22;33997;53.278;9.708;2023-03-01T15:03:38;11.30;62.10
48208;DHT22;33997;53.278;9.708;2023-03-01T15:06:07;10.90;64.30
48208;DHT22;33997;53.278;9.708;2023-03-01T15:08:34;11.60;62.80
48208;DHT22;33997;53.278;9.708;2023-03-01T15:13:35;12.00;60.70
48208;DHT22;33997;53.278;9.708;2023-03-01T15:18:35;11.90;61.30
48208;DHT22;33997;53.278;9.708;2023-03-01T15:21:24;12.10;61.70
48208;DHT22;33997;53.278;9.708;2023-03-01T15:23:53;12.40;60.40
48208;DHT22;33997;53.278;9.708;2023-03-01T15:26:25;12.10;60.40
48208;DHT22;33997;53.278;9.708;2023-03-01T15:28:52;11.00;62.50
48208;DHT22;33997;53.278;9.708;2023-03-01T15:31:23;11.30;63.40
48208;DHT22;33997;53.278;9.708;2023-03-01T15:33:50;11.70;62.60
48208;DHT22;33997;53.278;9.708;2023-03-01T15:36:40;11.40;62.50
48208;DHT22;33997;53.278;9.708;2023-03-01T15:39:37;11.40;63.30
48208;DHT22;33997;53.278;9.708;2023-03-01T15:44:35;12.30;61.80
48208;DHT22;33997;53.278;9.708;2023-03-01T15:47:20;12.20;60.20
48208;DHT22;33997;53.278;9.708;2023-03-01T15:49:46;12.30;59.80
48208;DHT22;33997;53.278;9.708;2023-03-01T15:54:56;12.50;60.70
48208;DHT22;33997;53.278;9.708;2023-03-01T15:57:21;12.00;60.40
48208;DHT22;33997;53.278;9.708;2023-03-01T15:59:47;11.40;61.70
48208;DHT22;33997;53.278;9.708;2023-03-01T16:02:12;11.20;63.10
48208;DHT22;33997;53.278;9.708;2023-03-01T16:04:39;11.70;62.80
48208;DHT22;33997;53.278;9.708;2023-03-01T16:07:04;11.20;61.90
48208;DHT22;33997;53.278;9.708;2023-03-01T16:09:30;10.70;63.40
48208;DHT22;33997;53.278;9.708;2023-03-01T16:11:55;10.30;65.10
48208;DHT22;33997;53.278;9.708;2023-03-01T16:14:21;10.30;65.20
48208;DHT22;33997;53.278;9.708;2023-03-01T16:16:47;9.30;67.50
48208;DHT22;33997;53.278;9.708;2023-03-01T16:19:16;9.00;68.80
48208;DHT22;33997;53.278;9.708;2023-03-01T16:21:42;8.60;70.90
48208;DHT22;33997;53.278;9.708;2023-03-01T16:24:09;8.10;71.70
48208;DHT22;33997;53.278;9.708;2023-03-01T16:26:36;7.70;72.70
48208;DHT22;33997;53.278;9.708;2023-03-01T16:29:03;7.40;73.10
48208;DHT22;33997;53.278;9.708;2023-03-01T16:31:28;7.10;74.80
48208;DHT22;33997;53.278;9.708;2023-03-01T16:33:58;6.80;75.90
48208;DHT22;33997;53.278;9.708;2023-03-01T16:36:25;6.60;76.50
48208;DHT22;33997;53.278;9.708;2023-03-01T16:38:53;6.40;77.10
48208;DHT22;33997;53.278;9.708;2023-03-01T16:41:21;6.10;78.90
48208;DHT22;33997;53.278;9.708;2023-03-01T16:43:47;6.00;79.30
48208;DHT22;33997;53.278;9.708;2023-03-01T16:46:24;5.70;80.30
48208;DHT22;33997;53.278;9.708;2023-03-01T16:48:51;5.50;81.60
48208;DHT22;33997;53.278;9.708;2023-03-01T16:51:17;5.30;82.30
48208;DHT22;33997;53.278;9.708;2023-03-01T16:53:43;5.20;82.80
48208;DHT22;33997;53.278;9.708;2023-03-01T16:56:10;5.00;83.60
48208;DHT22;33997;53.278;9.708;2023-03-01T16:58:37;4.90;83.60
48208;DHT22;33997;53.278;9.708;2023-03-01T17:01:13;4.70;83.70
48208;DHT22;33997;53.278;9.708;2023-03-01T17:03:39;4.60;85.00
48208;DHT22;33997;53.278;9.708;2023-03-01T17:06:07;4.40;86.00
48208;DHT22;33997;53.278;9.708;2023-03-01T17:08:32;4.30;86.30
48208;DHT22;33997;53.278;9.708;2023-03-01T17:11:13;4.20;86.40
48208;DHT22;33997;53.278;9.708;2023-03-01T17:13:40;4.10;87.00
48208;DHT22;33997;53.278;9.708;2023-03-01T17:16:07;3.90;87.00
48208;DHT22;33997;53.278;9.708;2023-03-01T17:18:33;3.80;88.20
48208;DHT22;33997;53.278;9.708;2023-03-01T17:20:59;3.60;88.90
48208;DHT22;33997;53.278;9.708;2023-03-01T17:23:26;3.50;89.90
48208;DHT22;33997;53.278;9.708;2023-03-01T17:25:53;3.50;90.40